createdAt,value
2023-04-07T00:00:53.094Z,6.92
2023-04-07T00:03:55.136Z,6.83
2023-04-07T00:06:58.333Z,6.94
2023-04-07T00:09:59.997Z,6.82
2023-04-07T00:13:02.223Z,6.92
2023-04-07T00:16:03.979Z,7.07
2023-04-07T00:19:05.671Z,6.93
2023-04-07T00:22:08.628Z,6.89
2023-04-07T00:25:10.737Z,6.86
2023-04-07T00:28:12.401Z,6.87
2023-04-07T00:31:14.353Z,6.96
2023-04-07T00:34:16.186Z,7.01
2023-04-07T00:37:19.393Z,7.12
2023-04-07T00:40:21.055Z,6.99
2023-04-07T00:43:22.772Z,7.11
2023-04-07T00:46:24.633Z,7.14
2023-04-07T00:49:28.351Z,7.02
2023-04-07T00:52:32.525Z,7.19
2023-04-07T00:55:34.246Z,7.14
2023-04-07T00:58:35.927Z,7.14
2023-04-07T01:01:46.781Z,7.22
2023-04-07T01:04:53.107Z,6.96
2023-04-07T01:08:05.125Z,7.16
2023-04-07T01:11:13.155Z,7.02
2023-04-07T01:14:17.843Z,7.25
2023-04-07T01:17:25.945Z,7.17
2023-04-07T01:20:32.806Z,7.13
2023-04-07T01:24:01.560Z,7.28
2023-04-07T01:27:19.054Z,7.23
2023-04-07T01:30:24.810Z,7.19
2023-04-07T01:33:32.084Z,7.37
2023-04-07T01:36:34.398Z,7.34
2023-04-07T01:39:38.669Z,7.27
2023-04-07T01:42:42.288Z,7.40
2023-04-07T01:45:46.158Z,7.40
2023-04-07T01:48:49.482Z,7.24
2023-04-07T01:51:51.998Z,7.24
2023-04-07T01:54:54.441Z,7.45
2023-04-07T01:57:56.109Z,7.44
2023-04-07T02:00:59.931Z,7.39
2023-04-07T02:04:09.023Z,7.46
2023-04-07T02:07:18.923Z,7.50
2023-04-07T02:10:27.366Z,7.53
2023-04-07T02:13:35.297Z,7.49
2023-04-07T02:16:41.833Z,7.53
2023-04-07T02:19:45.081Z,7.51
2023-04-07T02:22:47.210Z,7.55
2023-04-07T02:25:49.945Z,7.54
2023-04-07T02:28:51.680Z,7.53
2023-04-07T02:31:56.685Z,7.53
2023-04-07T02:34:58.581Z,7.45
2023-04-07T02:38:00.494Z,7.38
2023-04-07T02:41:02.437Z,7.58
2023-04-07T02:44:04.849Z,7.40
2023-04-07T02:47:07.864Z,7.36
2023-04-07T02:50:10.357Z,7.49
2023-04-07T02:53:12.090Z,7.50
2023-04-07T02:56:13.967Z,7.49
2023-04-07T02:59:15.780Z,7.37
2023-04-07T03:02:20.183Z,7.43
2023-04-07T03:05:22.444Z,7.47
2023-04-07T03:08:24.208Z,7.64
2023-04-07T03:11:27.201Z,7.54
2023-04-07T03:14:29.835Z,7.57
2023-04-07T03:17:33.562Z,7.73
2023-04-07T03:20:35.293Z,7.67
2023-04-07T03:23:43.336Z,7.63
2023-04-07T03:26:45.019Z,7.66
2023-04-07T03:29:54.560Z,7.62
2023-04-07T03:32:58.357Z,7.63
2023-04-07T03:36:00.446Z,7.64
2023-04-07T03:39:04.121Z,7.53
2023-04-07T03:42:05.966Z,7.53
2023-04-07T03:45:09.638Z,7.62
2023-04-07T03:48:18.390Z,7.45
2023-04-07T03:51:31.219Z,7.51
2023-04-07T03:54:35.548Z,7.64
2023-04-07T03:57:38.078Z,7.56
2023-04-07T04:00:40.624Z,7.49
2023-04-07T04:03:47.024Z,7.46
2023-04-07T04:07:18.151Z,7.48
2023-04-07T04:10:23.764Z,7.48
2023-04-07T04:13:28.130Z,7.53
2023-04-07T04:16:33.039Z,7.39
2023-04-07T04:19:40.348Z,7.51
2023-04-07T04:22:50.325Z,7.50
2023-04-07T04:25:52.754Z,7.54
2023-04-07T04:28:54.676Z,7.54
2023-04-07T04:31:57.614Z,7.42
2023-04-07T04:35:01.942Z,7.51
2023-04-07T04:38:06.255Z,7.40
2023-04-07T04:41:08.752Z,7.30
2023-04-07T04:44:10.982Z,7.35
2023-04-07T04:47:17.821Z,7.26
2023-04-07T04:50:22.019Z,7.16
2023-04-07T04:53:25.265Z,7.05
2023-04-07T04:56:31.960Z,6.93
2023-04-07T04:59:34.264Z,7.04
2023-04-07T05:02:38.545Z,7.15
2023-04-07T05:05:47.519Z,7.15
2023-04-07T05:08:50.416Z,7.22
2023-04-07T05:11:55.886Z,7.32
2023-04-07T05:14:59.082Z,7.16
2023-04-07T05:18:01.011Z,7.20
2023-04-07T05:21:05.389Z,7.31
2023-04-07T05:24:10.025Z,7.49
2023-04-07T05:27:12.607Z,7.35
2023-04-07T05:30:16.049Z,7.46
2023-04-07T05:33:18.132Z,7.53
2023-04-07T05:36:25.829Z,7.54
2023-04-07T05:39:31.062Z,7.68
2023-04-07T05:42:33.586Z,7.68
2023-04-07T05:45:35.515Z,7.63
2023-04-07T05:48:37.529Z,7.55
2023-04-07T05:51:40.794Z,7.56
2023-04-07T05:54:46.470Z,7.64
2023-04-07T05:57:49.886Z,7.76
2023-04-07T06:00:55.098Z,7.74
2023-04-07T06:03:58.833Z,7.71
2023-04-07T06:07:03.683Z,7.64
2023-04-07T06:10:06.871Z,7.86
2023-04-07T06:13:08.639Z,7.90
2023-04-07T06:16:10.390Z,8.00
2023-04-07T06:19:12.726Z,8.14
2023-04-07T06:22:16.271Z,8.16
2023-04-07T06:25:18.092Z,8.20
2023-04-07T06:28:19.893Z,8.39
2023-04-07T06:31:21.776Z,8.41
2023-04-07T06:34:23.486Z,8.48
2023-04-07T06:37:26.461Z,8.55
2023-04-07T06:40:29.284Z,8.64
2023-04-07T06:43:31.425Z,8.69
2023-04-07T06:46:38.033Z,8.79
2023-04-07T06:49:39.961Z,8.81
2023-04-07T06:52:43.195Z,8.83
2023-04-07T06:55:44.919Z,8.77
2023-04-07T06:58:47.055Z,8.90
2023-04-07T07:01:49.399Z,8.92
2023-04-07T07:04:51.192Z,9.06
2023-04-07T07:07:54.704Z,9.13
2023-04-07T07:10:56.661Z,9.20
2023-04-07T07:13:58.494Z,9.25
2023-04-07T07:17:01.268Z,9.28
2023-04-07T07:20:03.284Z,9.46
2023-04-07T07:23:06.448Z,9.64
2023-04-07T07:26:08.412Z,9.51
2023-04-07T07:29:10.220Z,9.83
2023-04-07T07:32:11.897Z,9.65
2023-04-07T07:35:13.743Z,9.49
2023-04-07T07:38:16.977Z,9.63
2023-04-07T07:41:18.966Z,9.62
2023-04-07T07:44:20.679Z,9.58
2023-04-07T07:47:23.303Z,9.51
2023-04-07T07:50:25.589Z,9.56
2023-04-07T07:53:28.622Z,9.76
2023-04-07T07:56:30.407Z,9.82
2023-04-07T07:59:32.169Z,10.29
2023-04-07T08:02:34.023Z,10.17
2023-04-07T08:05:35.923Z,10.61
2023-04-07T08:08:38.955Z,10.30
2023-04-07T08:11:40.709Z,10.31
2023-04-07T08:14:42.397Z,10.17
2023-04-07T08:17:44.177Z,10.22
2023-04-07T08:20:46.795Z,10.12
2023-04-07T08:23:50.181Z,10.10
2023-04-07T08:26:52.147Z,9.85
2023-04-07T08:29:59.422Z,9.72
2023-04-07T08:33:01.395Z,9.93
2023-04-07T08:36:03.460Z,10.19
2023-04-07T08:39:07.010Z,10.13
2023-04-07T08:42:11.602Z,10.07
2023-04-07T08:45:13.713Z,10.00
2023-04-07T08:48:17.766Z,10.16
2023-04-07T08:51:27.325Z,9.87
2023-04-07T08:54:30.503Z,9.86
2023-04-07T08:57:33.141Z,9.74
2023-04-07T09:00:35.113Z,9.73
2023-04-07T09:03:38.210Z,10.08
2023-04-07T09:06:40.047Z,10.11
2023-04-07T09:09:43.132Z,10.33
2023-04-07T09:12:44.803Z,10.51
2023-04-07T09:15:46.623Z,11.08
2023-04-07T09:18:48.432Z,11.45
2023-04-07T09:21:51.440Z,11.05
2023-04-07T09:24:54.418Z,10.62
2023-04-07T09:27:57.844Z,11.02
2023-04-07T09:30:59.636Z,10.99
2023-04-07T09:34:01.820Z,10.81
2023-04-07T09:37:09.675Z,10.72
2023-04-07T09:40:27.298Z,10.49
2023-04-07T09:43:29.322Z,10.62
2023-04-07T09:46:32.301Z,10.75
2023-04-07T09:49:48.009Z,11.02
2023-04-07T09:52:52.363Z,10.91
2023-04-07T09:55:55.930Z,11.03
2023-04-07T09:58:57.873Z,10.50
2023-04-07T10:02:00.945Z,11.02
2023-04-07T10:05:03.609Z,10.81
2023-04-07T10:08:06.924Z,11.03
2023-04-07T10:11:10.381Z,11.30
2023-04-07T10:14:13.077Z,11.15
2023-04-07T10:17:19.166Z,11.54
2023-04-07T10:20:22.770Z,11.28
2023-04-07T10:23:28.948Z,11.54
2023-04-07T10:26:35.739Z,11.10
2023-04-07T10:29:41.722Z,11.43
2023-04-07T10:32:47.685Z,10.67
2023-04-07T10:36:06.894Z,10.70
2023-04-07T10:39:21.940Z,10.80
2023-04-07T10:42:47.716Z,10.71
2023-04-07T10:45:56.204Z,11.09
2023-04-07T10:49:09.712Z,11.41
2023-04-07T10:52:23.189Z,10.96
2023-04-07T10:55:36.709Z,11.53
2023-04-07T10:58:39.777Z,11.77
2023-04-07T11:01:41.517Z,12.47
2023-04-07T11:04:46.947Z,12.02
2023-04-07T11:07:52.171Z,12.32
2023-04-07T11:10:53.967Z,11.69
2023-04-07T11:13:57.346Z,11.47
2023-04-07T11:17:01.520Z,11.55
2023-04-07T11:20:03.887Z,11.72
2023-04-07T11:23:05.841Z,11.85
2023-04-07T11:26:09.417Z,11.90
2023-04-07T11:29:12.763Z,12.22
2023-04-07T11:32:14.628Z,11.92
2023-04-07T11:35:17.034Z,12.09
2023-04-07T11:38:19.621Z,11.81
2023-04-07T11:41:21.660Z,11.09
2023-04-07T11:44:29.274Z,10.97
2023-04-07T11:47:34.816Z,11.05
2023-04-07T11:50:41.197Z,10.61
2023-04-07T11:53:43.565Z,11.27
2023-04-07T11:56:47.515Z,11.27
2023-04-07T11:59:50.813Z,10.98
2023-04-07T12:02:53.219Z,10.74
2023-04-07T12:05:55.606Z,10.56
2023-04-07T12:08:57.436Z,10.68
2023-04-07T12:11:59.379Z,10.63
2023-04-07T12:15:02.895Z,11.18
2023-04-07T12:21:26.681Z,11.17
2023-04-07T12:24:28.584Z,11.11
2023-04-07T12:27:42.144Z,10.95
2023-04-07T12:30:46.944Z,10.71
2023-04-07T12:33:48.969Z,9.90
2023-04-07T12:36:51.581Z,9.46
2023-04-07T12:39:53.405Z,9.35
2023-04-07T12:42:58.120Z,9.73
2023-04-07T12:46:01.363Z,9.66
2023-04-07T12:49:03.454Z,9.44
2023-04-07T12:52:06.901Z,9.58
2023-04-07T12:55:29.002Z,9.35
2023-04-07T12:58:31.407Z,9.51
2023-04-07T13:01:35.603Z,9.49
2023-04-07T13:04:40.585Z,9.81
2023-04-07T13:07:42.677Z,9.38
2023-04-07T13:10:44.363Z,9.71
2023-04-07T13:13:46.129Z,9.65
2023-04-07T13:16:50.380Z,9.72
2023-04-07T13:19:52.599Z,9.85
2023-04-07T13:26:02.929Z,10.11
2023-04-07T13:29:04.832Z,10.53
2023-04-07T13:32:09.241Z,10.87
2023-04-07T13:35:13.647Z,11.23
2023-04-07T13:38:15.566Z,11.34
2023-04-07T13:41:17.465Z,11.19
2023-04-07T13:44:19.448Z,11.13
2023-04-07T13:47:22.734Z,11.18
2023-04-07T13:50:24.880Z,11.93
2023-04-07T13:53:26.473Z,12.02
2023-04-07T13:56:28.265Z,12.97
2023-04-07T13:59:30.066Z,12.04
2023-04-07T14:02:34.247Z,11.95
2023-04-07T14:05:35.988Z,12.61
2023-04-07T14:08:37.740Z,12.63
2023-04-07T14:11:39.583Z,12.79
2023-04-07T14:14:41.698Z,13.03
2023-04-07T14:17:44.738Z,12.80
2023-04-07T14:20:47.085Z,12.50
2023-04-07T14:23:48.813Z,13.17
2023-04-07T14:26:51.155Z,12.47
2023-04-07T14:29:54.019Z,12.45
2023-04-07T14:32:57.022Z,12.53
2023-04-07T14:35:58.838Z,12.25
2023-04-07T14:39:01.186Z,12.36
2023-04-07T14:42:03.144Z,12.35
2023-04-07T14:45:05.784Z,11.78
2023-04-07T14:48:08.845Z,11.60
2023-04-07T14:51:12.410Z,11.57
2023-04-07T14:54:13.984Z,11.52
2023-04-07T14:57:16.614Z,11.63
2023-04-07T15:00:18.887Z,11.28
2023-04-07T15:03:22.059Z,11.48
2023-04-07T15:06:23.988Z,11.66
2023-04-07T15:09:25.686Z,11.12
2023-04-07T15:12:29.683Z,11.22
2023-04-07T15:15:31.352Z,10.97
2023-04-07T15:18:34.902Z,11.15
2023-04-07T15:21:36.858Z,10.98
2023-04-07T15:24:38.507Z,10.95
2023-04-07T15:27:40.303Z,10.90
2023-04-07T15:30:42.810Z,10.72
2023-04-07T15:33:46.188Z,10.75
2023-04-07T15:36:48.083Z,10.81
2023-04-07T15:39:50.989Z,10.59
2023-04-07T15:42:52.758Z,10.76
2023-04-07T15:45:55.788Z,10.97
2023-04-07T15:48:58.989Z,10.88
2023-04-07T15:52:03.617Z,10.80
2023-04-07T15:55:06.021Z,10.77
2023-04-07T15:58:08.480Z,10.52
2023-04-07T16:01:10.212Z,11.00
2023-04-07T16:04:13.479Z,10.98
2023-04-07T16:07:15.240Z,11.20
2023-04-07T16:10:19.770Z,10.81
2023-04-07T16:13:21.574Z,10.89
2023-04-07T16:16:23.632Z,10.95
2023-04-07T16:19:27.085Z,10.90
2023-04-07T16:22:28.766Z,10.74
2023-04-07T16:25:30.797Z,10.76
2023-04-07T16:28:32.560Z,10.77
2023-04-07T16:31:34.318Z,10.68
2023-04-07T16:34:37.482Z,10.49
2023-04-07T16:37:39.278Z,10.61
2023-04-07T16:40:42.724Z,10.68
2023-04-07T16:43:47.771Z,10.92
2023-04-07T16:46:49.680Z,10.59
2023-04-07T16:49:52.863Z,10.69
2023-04-07T16:52:57.225Z,10.46
2023-04-07T16:55:58.920Z,10.43
2023-04-07T16:59:02.710Z,10.50
2023-04-07T17:02:11.036Z,10.33
2023-04-07T17:05:14.534Z,10.33
2023-04-07T17:08:16.297Z,10.46
2023-04-07T17:11:18.042Z,10.35
2023-04-07T17:14:20.639Z,10.39
2023-04-07T17:17:22.778Z,10.57
2023-04-07T17:20:27.311Z,10.69
2023-04-07T17:23:29.249Z,10.44
2023-04-07T17:26:31.346Z,10.42
2023-04-07T17:29:33.669Z,10.37
2023-04-07T17:32:35.413Z,10.41
2023-04-07T17:35:38.788Z,10.27
2023-04-07T17:38:40.997Z,10.29
2023-04-07T17:41:42.761Z,10.34
2023-04-07T17:44:44.635Z,10.33
2023-04-07T17:49:04.587Z,10.32
2023-04-07T17:52:06.308Z,10.26
2023-04-07T17:55:09.008Z,10.25
2023-04-07T17:58:10.679Z,10.18
2023-04-07T18:01:12.767Z,10.15
2023-04-07T18:04:16.878Z,10.20
2023-04-07T18:07:18.750Z,10.13
2023-04-07T18:10:20.795Z,10.10
2023-04-07T18:13:22.456Z,10.09
2023-04-07T18:16:24.473Z,10.04
2023-04-07T18:19:29.989Z,10.03
2023-04-07T18:22:32.915Z,10.00
2023-04-07T18:25:35.055Z,9.96
2023-04-07T18:28:36.925Z,9.96
2023-04-07T18:31:39.270Z,9.92
2023-04-07T18:34:42.687Z,9.92
2023-04-07T18:37:44.522Z,9.86
2023-04-07T18:40:46.269Z,9.82
2023-04-07T18:43:48.588Z,9.80
2023-04-07T18:46:50.828Z,9.79
2023-04-07T18:49:54.041Z,9.78
2023-04-07T18:52:55.753Z,9.72
2023-04-07T18:55:57.488Z,9.74
2023-04-07T18:58:59.333Z,9.66
2023-04-07T19:02:01.388Z,9.65
2023-04-07T19:05:05.497Z,9.62
2023-04-07T19:08:07.689Z,9.48
2023-04-07T19:11:10.014Z,9.42
2023-04-07T19:14:12.009Z,9.33
2023-04-07T19:17:13.797Z,9.31
2023-04-07T19:20:16.960Z,9.07
2023-04-07T19:23:18.620Z,9.01
2023-04-07T19:26:21.533Z,8.91
2023-04-07T19:29:23.431Z,8.67
2023-04-07T19:32:25.127Z,8.65
2023-04-07T19:35:28.481Z,8.52
2023-04-07T19:38:30.306Z,8.65
2023-04-07T19:41:33.005Z,8.65
2023-04-07T19:44:35.361Z,8.63
2023-04-07T19:47:37.635Z,8.64
2023-04-07T19:50:43.763Z,8.60
2023-04-07T19:53:46.381Z,8.57
2023-04-07T19:56:48.149Z,8.60
2023-04-07T19:59:50.016Z,8.57
2023-04-07T20:02:51.961Z,8.66
2023-04-07T20:05:55.236Z,8.55
2023-04-07T20:08:58.622Z,8.66
2023-04-07T20:12:01.704Z,8.70
2023-04-07T20:15:06.996Z,8.76
2023-04-07T20:18:09.034Z,8.61
2023-04-07T20:21:12.536Z,8.68
2023-04-07T20:24:14.932Z,8.70
2023-04-07T20:27:18.232Z,8.73
2023-04-07T20:30:20.310Z,8.87
2023-04-07T20:33:22.082Z,8.90
2023-04-07T20:36:25.892Z,9.06
2023-04-07T20:39:27.637Z,9.13
2023-04-07T20:42:29.360Z,9.10
2023-04-07T20:45:31.232Z,9.13
2023-04-07T20:48:33.003Z,9.19
2023-04-07T20:51:36.646Z,9.21
2023-04-07T20:54:38.624Z,9.15
2023-04-07T20:57:42.008Z,9.15
2023-04-07T21:00:44.957Z,9.12
2023-04-07T21:03:47.177Z,9.09
2023-04-07T21:06:50.266Z,9.13
2023-04-07T21:09:52.243Z,9.08
2023-04-07T21:12:53.909Z,9.03
2023-04-07T21:15:57.247Z,9.05
2023-04-07T21:18:59.487Z,8.97
2023-04-07T21:22:03.926Z,8.98
2023-04-07T21:25:07.106Z,8.94
2023-04-07T21:28:08.859Z,8.96
2023-04-07T21:31:10.865Z,8.92
2023-04-07T21:34:12.596Z,8.93
2023-04-07T21:37:15.772Z,8.93
2023-04-07T21:40:17.657Z,9.00
2023-04-07T21:43:19.950Z,9.05
2023-04-07T21:46:21.976Z,9.10
2023-04-07T21:49:25.237Z,9.09
2023-04-07T21:52:28.304Z,9.05
2023-04-07T21:55:29.992Z,9.02
2023-04-07T21:58:31.632Z,9.05
2023-04-07T22:01:33.380Z,9.01
2023-04-07T22:04:36.014Z,8.95
2023-04-07T22:07:39.470Z,8.99
2023-04-07T22:10:41.228Z,9.00
2023-04-07T22:13:43.073Z,8.95
2023-04-07T22:16:44.856Z,8.88
2023-04-07T22:19:46.485Z,8.92
2023-04-07T22:22:49.558Z,8.92
2023-04-07T22:25:51.243Z,8.97
2023-04-07T22:28:52.833Z,8.88
2023-04-07T22:31:54.766Z,8.75
2023-04-07T22:34:56.551Z,8.84
2023-04-07T22:37:59.489Z,8.80
2023-04-07T22:41:01.580Z,8.68
2023-04-07T22:44:03.480Z,8.66
2023-04-07T22:47:05.300Z,8.53
2023-04-07T22:50:07.935Z,8.53
2023-04-07T22:53:11.272Z,8.56
2023-04-07T22:56:12.944Z,8.53
2023-04-07T22:59:14.560Z,8.51
2023-04-07T23:02:16.461Z,8.53
2023-04-07T23:05:18.541Z,8.51
2023-04-07T23:08:21.730Z,8.52
2023-04-07T23:11:23.372Z,8.47
2023-04-07T23:14:25.317Z,8.48
2023-04-07T23:17:27.416Z,8.51
2023-04-07T23:20:29.090Z,8.41
2023-04-07T23:23:32.315Z,8.42
2023-04-07T23:26:34.040Z,8.34
2023-04-07T23:29:36.227Z,8.33
2023-04-07T23:32:38.011Z,8.33
2023-04-07T23:35:39.781Z,8.35
2023-04-07T23:38:42.809Z,8.33
2023-04-07T23:41:44.451Z,8.25
2023-04-07T23:44:46.323Z,8.28
2023-04-07T23:47:48.178Z,8.25
2023-04-07T23:50:51.494Z,8.22
2023-04-07T23:53:54.528Z,8.27
2023-04-07T23:56:57.093Z,8.32
2023-04-07T23:59:58.825Z,8.27
